FQIN

Details ICAO FQIN (INH)
Name INHAMBANE
Region Mozambique
Timezone Africa/Maputo (UTC+2.0)
Plans Departing 1
Arriving 6
Stats Elevation 30 ft / 9 m (AMSL)
Location -23.876357° 35.408202°
Runways 2
Magnetic Variation 18.214° W
Sunrise 2018-05-26 04:12:12 UTC / 2018-05-26 06:12:12 Local
Sunset 2018-05-26 15:01:28 UTC / 2018-05-26 17:01:28 Local
Advertisement - Login to hide

Runways

ID Width Length Bearing (true) Bearing (mag) Surface Threshold Offset Overrun Length
06 98 ft / 30 m 2,626 ft / 800 m 46.91° 65.12° Dirt 0 ft / 0 m 0 ft / 0 m
16 98 ft / 30 m 4,937 ft / 1,505 m 149.24° 167.45° Asphalt 0 ft / 0 m 0 ft / 0 m
24 98 ft / 30 m 2,626 ft / 800 m 226.90° 245.11° Dirt 0 ft / 0 m 0 ft / 0 m
34 98 ft / 30 m 4,937 ft / 1,505 m 329.24° 347.45° Asphalt 0 ft / 0 m 0 ft / 0 m

Map

Weather


0- 5 10 15 20 25 30 35+ Temperature / ° C

Clouds and Precipitation
Forecast for 2018-05-26 06:00 UTC. Updated 5 hours ago

Ground ~20,000 ft ~40,000 ft Winds

METAR

Not found

TAF

TAF FQIN 252200Z 2600/2624 VRB03KT 9999 FEW025 BECMG 2606/2608 17010KT SCT025 BECMG 2612/2614 09010KT BECMG 2618/2620 03012KT TN20/2603Z TX30/2613Z

Frequencies

Tower 118.40 MHz AFIS
Warning: Do not use this data for real-world aviation or navigation. No guarantee of current accuracy is given.